sensor_id;sensor_type;location;lat;lon;timestamp;P1;durP1;ratioP1;P2;durP2;ratioP2
2652;SDS011;1336;48.692;9.144;2024-01-07T06:00:53;16.75;;;14.95;;
2652;SDS011;1336;48.692;9.144;2024-01-07T06:01:44;17.10;;;14.77;;
2652;SDS011;1336;48.692;9.144;2024-01-07T06:02:37;18.85;;;14.38;;
2652;SDS011;1336;48.692;9.144;2024-01-07T06:03:28;17.65;;;15.85;;
2652;SDS011;1336;48.692;9.144;2024-01-07T06:04:20;17.88;;;15.95;;
2652;SDS011;1336;48.692;9.144;2024-01-07T06:05:11;17.20;;;15.00;;
2652;SDS011;1336;48.692;9.144;2024-01-07T06:06:03;16.60;;;14.85;;
2652;SDS011;1336;48.692;9.144;2024-01-07T06:06:55;16.73;;;14.95;;
2652;SDS011;1336;48.692;9.144;2024-01-07T06:07:46;16.70;;;13.85;;
2652;SDS011;1336;48.692;9.144;2024-01-07T06:08:37;18.10;;;15.18;;
2652;SDS011;1336;48.692;9.144;2024-01-07T06:09:29;16.23;;;14.50;;
2652;SDS011;1336;48.692;9.144;2024-01-07T06:10:20;16.17;;;14.48;;
2652;SDS011;1336;48.692;9.144;2024-01-07T06:11:11;17.35;;;15.50;;
2652;SDS011;1336;48.692;9.144;2024-01-07T06:12:08;18.08;;;15.07;;
2652;SDS011;1336;48.692;9.144;2024-01-07T06:12:59;16.55;;;14.80;;
2652;SDS011;1336;48.692;9.144;2024-01-07T06:13:53;18.45;;;16.50;;
2652;SDS011;1336;48.692;9.144;2024-01-07T06:14:44;16.20;;;14.50;;
2652;SDS011;1336;48.692;9.144;2024-01-07T06:15:36;17.23;;;15.02;;
2652;SDS011;1336;48.692;9.144;2024-01-07T06:16:28;17.75;;;15.85;;
2652;SDS011;1336;48.692;9.144;2024-01-07T06:17:19;14.02;;;12.23;;
2652;SDS011;1336;48.692;9.144;2024-01-07T06:18:11;15.93;;;14.30;;
2652;SDS011;1336;48.692;9.144;2024-01-07T06:19:02;15.80;;;14.20;;
2652;SDS011;1336;48.692;9.144;2024-01-07T06:19:54;17.30;;;15.07;;
2652;SDS011;1336;48.692;9.144;2024-01-07T06:20:46;15.10;;;13.50;;
2652;SDS011;1336;48.692;9.144;2024-01-07T06:21:37;15.98;;;14.38;;
2652;SDS011;1336;48.692;9.144;2024-01-07T06:22:29;16.40;;;14.80;;
2652;SDS011;1336;48.692;9.144;2024-01-07T06:23:20;17.70;;;15.93;;
2652;SDS011;1336;48.692;9.144;2024-01-07T06:24:11;17.50;;;15.70;;
2652;SDS011;1336;48.692;9.144;2024-01-07T06:25:03;15.82;;;14.23;;
2652;SDS011;1336;48.692;9.144;2024-01-07T06:25:55;17.10;;;15.15;;
2652;SDS011;1336;48.692;9.144;2024-01-07T06:26:46;16.08;;;14.48;;
2652;SDS011;1336;48.692;9.144;2024-01-07T06:27:38;17.38;;;15.55;;
2652;SDS011;1336;48.692;9.144;2024-01-07T06:28:29;16.02;;;14.52;;
2652;SDS011;1336;48.692;9.144;2024-01-07T06:29:20;17.52;;;15.68;;
2652;SDS011;1336;48.692;9.144;2024-01-07T06:30:13;15.90;;;14.30;;
2652;SDS011;1336;48.692;9.144;2024-01-07T06:31:04;16.60;;;14.93;;
2652;SDS011;1336;48.692;9.144;2024-01-07T06:31:57;17.25;;;15.45;;
2652;SDS011;1336;48.692;9.144;2024-01-07T06:32:48;15.15;;;13.73;;
2652;SDS011;1336;48.692;9.144;2024-01-07T06:33:40;17.63;;;15.43;;
2652;SDS011;1336;48.692;9.144;2024-01-07T06:34:32;17.85;;;15.27;;
2652;SDS011;1336;48.692;9.144;2024-01-07T06:35:24;18.38;;;15.90;;
2652;SDS011;1336;48.692;9.144;2024-01-07T06:36:16;16.90;;;14.98;;
2652;SDS011;1336;48.692;9.144;2024-01-07T06:37:07;17.20;;;15.40;;
2652;SDS011;1336;48.692;9.144;2024-01-07T06:38:00;17.83;;;16.02;;
2652;SDS011;1336;48.692;9.144;2024-01-07T06:38:51;16.35;;;14.40;;
2652;SDS011;1336;48.692;9.144;2024-01-07T06:39:42;17.38;;;15.60;;
2652;SDS011;1336;48.692;9.144;2024-01-07T06:40:35;18.35;;;15.55;;
2652;SDS011;1336;48.692;9.144;2024-01-07T06:41:26;17.50;;;15.65;;
2652;SDS011;1336;48.692;9.144;2024-01-07T06:42:17;17.45;;;15.70;;
2652;SDS011;1336;48.692;9.144;2024-01-07T06:43:09;18.33;;;15.50;;
2652;SDS011;1336;48.692;9.144;2024-01-07T06:44:00;17.55;;;15.70;;
2652;SDS011;1336;48.692;9.144;2024-01-07T06:44:51;17.63;;;15.73;;
2652;SDS011;1336;48.692;9.144;2024-01-07T06:45:43;18.48;;;16.58;;
2652;SDS011;1336;48.692;9.144;2024-01-07T06:46:34;17.30;;;15.40;;
2652;SDS011;1336;48.692;9.144;2024-01-07T06:47:28;17.73;;;15.82;;
2652;SDS011;1336;48.692;9.144;2024-01-07T06:48:19;17.85;;;16.02;;
2652;SDS011;1336;48.692;9.144;2024-01-07T06:49:10;18.73;;;16.73;;
2652;SDS011;1336;48.692;9.144;2024-01-07T06:50:02;17.85;;;16.15;;
2652;SDS011;1336;48.692;9.144;2024-01-07T06:50:53;18.30;;;16.40;;
2652;SDS011;1336;48.692;9.144;2024-01-07T06:51:45;17.13;;;15.43;;
2652;SDS011;1336;48.692;9.144;2024-01-07T06:52:37;17.63;;;15.73;;
2652;SDS011;1336;48.692;9.144;2024-01-07T06:53:28;18.40;;;16.48;;
2652;SDS011;1336;48.692;9.144;2024-01-07T06:54:19;17.65;;;15.88;;
2652;SDS011;1336;48.692;9.144;2024-01-07T06:55:11;17.05;;;14.77;;
2652;SDS011;1336;48.692;9.144;2024-01-07T06:56:02;17.02;;;15.32;;
2652;SDS011;1336;48.692;9.144;2024-01-07T06:56:53;17.73;;;15.93;;
2652;SDS011;1336;48.692;9.144;2024-01-07T06:57:45;17.20;;;15.50;;
2652;SDS011;1336;48.692;9.144;2024-01-07T06:58:36;19.33;;;15.20;;
2652;SDS011;1336;48.692;9.144;2024-01-07T06:59:28;17.80;;;15.90;;
2652;SDS011;1336;48.692;9.144;2024-01-07T07:00:19;17.02;;;15.25;;
2652;SDS011;1336;48.692;9.144;2024-01-07T07:01:11;17.23;;;15.52;;
2652;SDS011;1336;48.692;9.144;2024-01-07T07:02:03;16.75;;;15.00;;
2652;SDS011;1336;48.692;9.144;2024-01-07T07:02:55;16.73;;;15.10;;
2652;SDS011;1336;48.692;9.144;2024-01-07T07:03:48;17.60;;;15.80;;
2652;SDS011;1336;48.692;9.144;2024-01-07T07:04:39;16.67;;;14.98;;
2652;SDS011;1336;48.692;9.144;2024-01-07T07:05:31;18.25;;;16.35;;
2652;SDS011;1336;48.692;9.144;2024-01-07T07:06:22;17.10;;;15.30;;
2652;SDS011;1336;48.692;9.144;2024-01-07T07:07:14;17.15;;;15.38;;
2652;SDS011;1336;48.692;9.144;2024-01-07T07:08:06;16.77;;;15.18;;
2652;SDS011;1336;48.692;9.144;2024-01-07T07:08:57;17.90;;;16.10;;
2652;SDS011;1336;48.692;9.144;2024-01-07T07:09:49;17.77;;;15.95;;
2652;SDS011;1336;48.692;9.144;2024-01-07T07:10:42;18.02;;;16.25;;
2652;SDS011;1336;48.692;9.144;2024-01-07T07:11:33;18.02;;;15.80;;
2652;SDS011;1336;48.692;9.144;2024-01-07T07:12:25;17.00;;;15.27;;
2652;SDS011;1336;48.692;9.144;2024-01-07T07:13:16;17.75;;;16.05;;
2652;SDS011;1336;48.692;9.144;2024-01-07T07:14:07;17.30;;;15.48;;
2652;SDS011;1336;48.692;9.144;2024-01-07T07:14:59;18.48;;;16.58;;
2652;SDS011;1336;48.692;9.144;2024-01-07T07:15:50;16.60;;;14.90;;
2652;SDS011;1336;48.692;9.144;2024-01-07T07:16:42;17.65;;;15.98;;
2652;SDS011;1336;48.692;9.144;2024-01-07T07:17:33;17.05;;;15.45;;
2652;SDS011;1336;48.692;9.144;2024-01-07T07:18:26;17.75;;;15.98;;
2652;SDS011;1336;48.692;9.144;2024-01-07T07:19:18;16.20;;;13.93;;
2652;SDS011;1336;48.692;9.144;2024-01-07T07:20:09;16.95;;;15.30;;
2652;SDS011;1336;48.692;9.144;2024-01-07T07:21:00;15.50;;;13.70;;
2652;SDS011;1336;48.692;9.144;2024-01-07T07:21:52;17.95;;;15.50;;
2652;SDS011;1336;48.692;9.144;2024-01-07T07:22:43;17.73;;;15.85;;
2652;SDS011;1336;48.692;9.144;2024-01-07T07:23:34;14.30;;;12.80;;
2652;SDS011;1336;48.692;9.144;2024-01-07T07:24:26;17.92;;;15.60;;
2652;SDS011;1336;48.692;9.144;2024-01-07T07:25:18;17.88;;;16.25;;
2652;SDS011;1336;48.692;9.144;2024-01-07T07:26:09;16.40;;;14.80;;
2652;SDS011;1336;48.692;9.144;2024-01-07T07:27:01;17.13;;;15.43;;
2652;SDS011;1336;48.692;9.144;2024-01-07T07:27:52;17.45;;;15.75;;
2652;SDS011;1336;48.692;9.144;2024-01-07T07:28:43;17.33;;;15.65;;
2652;SDS011;1336;48.692;9.144;2024-01-07T07:29:35;18.08;;;16.27;;
2652;SDS011;1336;48.692;9.144;2024-01-07T07:30:26;17.77;;;15.98;;
2652;SDS011;1336;48.692;9.144;2024-01-07T07:31:17;18.30;;;15.70;;
2652;SDS011;1336;48.692;9.144;2024-01-07T07:32:09;19.85;;;17.13;;
2652;SDS011;1336;48.692;9.144;2024-01-07T07:33:00;19.20;;;17.23;;
2652;SDS011;1336;48.692;9.144;2024-01-07T07:33:54;17.23;;;15.55;;
2652;SDS011;1336;48.692;9.144;2024-01-07T07:34:45;18.45;;;16.60;;
2652;SDS011;1336;48.692;9.144;2024-01-07T07:35:37;17.08;;;15.30;;
2652;SDS011;1336;48.692;9.144;2024-01-07T07:36:30;16.77;;;15.07;;
2652;SDS011;1336;48.692;9.144;2024-01-07T07:37:22;15.57;;;13.98;;
2652;SDS011;1336;48.692;9.144;2024-01-07T07:38:15;14.10;;;12.60;;
2652;SDS011;1336;48.692;9.144;2024-01-07T07:39:06;15.88;;;14.18;;
2652;SDS011;1336;48.692;9.144;2024-01-07T07:39:57;15.88;;;14.32;;
2652;SDS011;1336;48.692;9.144;2024-01-07T07:40:49;14.68;;;13.25;;
2652;SDS011;1336;48.692;9.144;2024-01-07T07:41:42;14.52;;;13.07;;
2652;SDS011;1336;48.692;9.144;2024-01-07T07:42:34;15.10;;;13.60;;
2652;SDS011;1336;48.692;9.144;2024-01-07T07:43:26;13.88;;;12.60;;
2652;SDS011;1336;48.692;9.144;2024-01-07T07:44:18;15.65;;;14.23;;
2652;SDS011;1336;48.692;9.144;2024-01-07T07:45:09;10.73;;;9.73;;
2652;SDS011;1336;48.692;9.144;2024-01-07T07:46:01;14.48;;;13.18;;
2652;SDS011;1336;48.692;9.144;2024-01-07T07:46:53;15.05;;;13.63;;
2652;SDS011;1336;48.692;9.144;2024-01-07T07:47:44;14.88;;;13.48;;
2652;SDS011;1336;48.692;9.144;2024-01-07T07:48:36;14.50;;;13.18;;
2652;SDS011;1336;48.692;9.144;2024-01-07T07:49:29;14.70;;;13.18;;
2652;SDS011;1336;48.692;9.144;2024-01-07T07:50:21;13.95;;;12.65;;
2652;SDS011;1336;48.692;9.144;2024-01-07T07:51:12;15.40;;;13.95;;
2652;SDS011;1336;48.692;9.144;2024-01-07T07:52:04;15.27;;;13.82;;
2652;SDS011;1336;48.692;9.144;2024-01-07T07:52:55;14.90;;;13.50;;
2652;SDS011;1336;48.692;9.144;2024-01-07T07:53:46;15.18;;;13.82;;
2652;SDS011;1336;48.692;9.144;2024-01-07T07:54:38;14.82;;;13.43;;
2652;SDS011;1336;48.692;9.144;2024-01-07T07:55:29;14.15;;;12.75;;
2652;SDS011;1336;48.692;9.144;2024-01-07T07:56:20;14.98;;;13.57;;
2652;SDS011;1336;48.692;9.144;2024-01-07T07:57:12;14.68;;;13.18;;
2652;SDS011;1336;48.692;9.144;2024-01-07T07:58:03;14.20;;;12.70;;
2652;SDS011;1336;48.692;9.144;2024-01-07T07:58:54;13.70;;;12.40;;
2652;SDS011;1336;48.692;9.144;2024-01-07T07:59:47;14.00;;;12.70;;
2652;SDS011;1336;48.692;9.144;2024-01-07T08:00:39;14.73;;;13.32;;
2652;SDS011;1336;48.692;9.144;2024-01-07T08:01:30;14.20;;;12.90;;
2652;SDS011;1336;48.692;9.144;2024-01-07T08:02:22;13.85;;;12.55;;
2652;SDS011;1336;48.692;9.144;2024-01-07T08:03:13;14.85;;;13.38;;
2652;SDS011;1336;48.692;9.144;2024-01-07T08:04:05;14.13;;;12.63;;
2652;SDS011;1336;48.692;9.144;2024-01-07T08:04:59;14.32;;;12.95;;
2652;SDS011;1336;48.692;9.144;2024-01-07T08:05:50;13.25;;;11.95;;
2652;SDS011;1336;48.692;9.144;2024-01-07T08:06:42;13.25;;;12.00;;
2652;SDS011;1336;48.692;9.144;2024-01-07T08:07:35;14.20;;;12.80;;
2652;SDS011;1336;48.692;9.144;2024-01-07T08:08:27;15.10;;;13.60;;
2652;SDS011;1336;48.692;9.144;2024-01-07T08:09:18;14.40;;;13.00;;
2652;SDS011;1336;48.692;9.144;2024-01-07T08:10:09;13.90;;;12.60;;
2652;SDS011;1336;48.692;9.144;2024-01-07T08:11:01;13.63;;;12.32;;
2652;SDS011;1336;48.692;9.144;2024-01-07T08:11:52;15.95;;;12.98;;
2652;SDS011;1336;48.692;9.144;2024-01-07T08:12:44;11.75;;;10.57;;
2652;SDS011;1336;48.692;9.144;2024-01-07T08:13:37;13.80;;;12.43;;
2652;SDS011;1336;48.692;9.144;2024-01-07T08:14:29;13.20;;;11.90;;
2652;SDS011;1336;48.692;9.144;2024-01-07T08:15:20;14.45;;;13.00;;
2652;SDS011;1336;48.692;9.144;2024-01-07T08:16:11;12.93;;;11.63;;
2652;SDS011;1336;48.692;9.144;2024-01-07T08:17:03;14.50;;;13.10;;
2652;SDS011;1336;48.692;9.144;2024-01-07T08:17:54;13.68;;;12.32;;
2652;SDS011;1336;48.692;9.144;2024-01-07T08:18:46;13.65;;;12.25;;
2652;SDS011;1336;48.692;9.144;2024-01-07T08:19:38;14.32;;;12.93;;
2652;SDS011;1336;48.692;9.144;2024-01-07T08:20:30;14.85;;;13.40;;
2652;SDS011;1336;48.692;9.144;2024-01-07T08:21:21;13.60;;;12.15;;
2652;SDS011;1336;48.692;9.144;2024-01-07T08:22:14;15.13;;;12.75;;
2652;SDS011;1336;48.692;9.144;2024-01-07T08:23:06;14.93;;;12.48;;
2652;SDS011;1336;48.692;9.144;2024-01-07T08:23:57;12.52;;;11.15;;
2652;SDS011;1336;48.692;9.144;2024-01-07T08:24:49;12.68;;;11.57;;
2652;SDS011;1336;48.692;9.144;2024-01-07T08:25:40;13.80;;;12.43;;
2652;SDS011;1336;48.692;9.144;2024-01-07T08:26:31;13.60;;;12.20;;
2652;SDS011;1336;48.692;9.144;2024-01-07T08:27:24;16.55;;;12.35;;
2652;SDS011;1336;48.692;9.144;2024-01-07T08:28:15;11.95;;;10.75;;
2652;SDS011;1336;48.692;9.144;2024-01-07T08:29:06;13.25;;;11.27;;
2652;SDS011;1336;48.692;9.144;2024-01-07T08:29:58;13.55;;;12.00;;
2652;SDS011;1336;48.692;9.144;2024-01-07T08:30:49;12.43;;;11.20;;
2652;SDS011;1336;48.692;9.144;2024-01-07T08:31:43;14.27;;;12.90;;
2652;SDS011;1336;48.692;9.144;2024-01-07T08:32:35;13.45;;;12.05;;
2652;SDS011;1336;48.692;9.144;2024-01-07T08:33:26;12.95;;;11.82;;
2652;SDS011;1336;48.692;9.144;2024-01-07T08:34:18;12.32;;;11.13;;
2652;SDS011;1336;48.692;9.144;2024-01-07T08:35:10;10.90;;;9.43;;
2652;SDS011;1336;48.692;9.144;2024-01-07T08:36:03;12.77;;;11.00;;
2652;SDS011;1336;48.692;9.144;2024-01-07T08:36:55;12.50;;;11.05;;
2652;SDS011;1336;48.692;9.144;2024-01-07T08:37:47;13.38;;;11.68;;
2652;SDS011;1336;48.692;9.144;2024-01-07T08:38:39;12.80;;;11.50;;
2652;SDS011;1336;48.692;9.144;2024-01-07T08:39:30;14.00;;;11.23;;
2652;SDS011;1336;48.692;9.144;2024-01-07T08:40:22;11.90;;;10.70;;
2652;SDS011;1336;48.692;9.144;2024-01-07T08:41:15;11.65;;;10.55;;
2652;SDS011;1336;48.692;9.144;2024-01-07T08:42:06;11.70;;;10.60;;
2652;SDS011;1336;48.692;9.144;2024-01-07T08:42:58;11.75;;;10.60;;
2652;SDS011;1336;48.692;9.144;2024-01-07T08:43:49;11.60;;;10.48;;
2652;SDS011;1336;48.692;9.144;2024-01-07T08:44:40;11.30;;;10.23;;
2652;SDS011;1336;48.692;9.144;2024-01-07T08:45:32;12.75;;;11.43;;
2652;SDS011;1336;48.692;9.144;2024-01-07T08:46:23;12.43;;;11.23;;
2652;SDS011;1336;48.692;9.144;2024-01-07T08:47:14;11.90;;;10.80;;
2652;SDS011;1336;48.692;9.144;2024-01-07T08:48:07;12.35;;;11.15;;
2652;SDS011;1336;48.692;9.144;2024-01-07T08:48:58;11.38;;;10.18;;
2652;SDS011;1336;48.692;9.144;2024-01-07T08:49:49;11.25;;;10.05;;
2652;SDS011;1336;48.692;9.144;2024-01-07T08:50:43;11.60;;;10.40;;
2652;SDS011;1336;48.692;9.144;2024-01-07T08:51:37;10.98;;;9.88;;
2652;SDS011;1336;48.692;9.144;2024-01-07T08:52:29;11.50;;;10.30;;
2652;SDS011;1336;48.692;9.144;2024-01-07T08:53:20;11.52;;;10.43;;
2652;SDS011;1336;48.692;9.144;2024-01-07T08:54:12;12.23;;;10.50;;
2652;SDS011;1336;48.692;9.144;2024-01-07T08:55:04;14.18;;;10.73;;
2652;SDS011;1336;48.692;9.144;2024-01-07T08:55:56;11.35;;;10.25;;
2652;SDS011;1336;48.692;9.144;2024-01-07T08:56:47;11.30;;;10.20;;
2652;SDS011;1336;48.692;9.144;2024-01-07T08:57:39;11.80;;;10.65;;
2652;SDS011;1336;48.692;9.144;2024-01-07T08:58:30;12.05;;;10.85;;
2652;SDS011;1336;48.692;9.144;2024-01-07T08:59:21;11.70;;;10.60;;
2652;SDS011;1336;48.692;9.144;2024-01-07T09:00:14;11.35;;;10.25;;
2652;SDS011;1336;48.692;9.144;2024-01-07T09:01:05;11.60;;;10.40;;
2652;SDS011;1336;48.692;9.144;2024-01-07T09:01:57;12.00;;;10.80;;
2652;SDS011;1336;48.692;9.144;2024-01-07T09:02:48;11.55;;;10.45;;
2652;SDS011;1336;48.692;9.144;2024-01-07T09:03:40;12.15;;;10.90;;
2652;SDS011;1336;48.692;9.144;2024-01-07T09:04:32;12.07;;;10.88;;
2652;SDS011;1336;48.692;9.144;2024-01-07T09:05:23;11.40;;;10.30;;
2652;SDS011;1336;48.692;9.144;2024-01-07T09:06:15;12.30;;;11.10;;
2652;SDS011;1336;48.692;9.144;2024-01-07T09:07:08;10.77;;;9.68;;
2652;SDS011;1336;48.692;9.144;2024-01-07T09:07:59;12.90;;;11.70;;
2652;SDS011;1336;48.692;9.144;2024-01-07T09:08:52;12.73;;;11.43;;
2652;SDS011;1336;48.692;9.144;2024-01-07T09:09:43;13.30;;;11.48;;
2652;SDS011;1336;48.692;9.144;2024-01-07T09:10:34;11.50;;;10.27;;
2652;SDS011;1336;48.692;9.144;2024-01-07T09:11:26;10.98;;;9.93;;
2652;SDS011;1336;48.692;9.144;2024-01-07T09:12:17;11.90;;;10.60;;
2652;SDS011;1336;48.692;9.144;2024-01-07T09:13:10;12.25;;;10.98;;
2652;SDS011;1336;48.692;9.144;2024-01-07T09:14:02;12.65;;;11.45;;
2652;SDS011;1336;48.692;9.144;2024-01-07T09:14:53;12.18;;;10.85;;
2652;SDS011;1336;48.692;9.144;2024-01-07T09:15:45;13.73;;;11.27;;
2652;SDS011;1336;48.692;9.144;2024-01-07T09:16:36;13.15;;;11.75;;
2652;SDS011;1336;48.692;9.144;2024-01-07T09:17:29;12.77;;;11.48;;
2652;SDS011;1336;48.692;9.144;2024-01-07T09:18:20;11.93;;;10.73;;
2652;SDS011;1336;48.692;9.144;2024-01-07T09:19:11;13.02;;;11.40;;
2652;SDS011;1336;48.692;9.144;2024-01-07T09:20:03;12.70;;;11.32;;
2652;SDS011;1336;48.692;9.144;2024-01-07T09:20:58;12.25;;;11.05;;
2652;SDS011;1336;48.692;9.144;2024-01-07T09:21:49;12.15;;;10.95;;
2652;SDS011;1336;48.692;9.144;2024-01-07T09:22:44;13.38;;;11.05;;
2652;SDS011;1336;48.692;9.144;2024-01-07T09:23:35;12.60;;;10.80;;
2652;SDS011;1336;48.692;9.144;2024-01-07T09:24:26;11.73;;;10.52;;
2652;SDS011;1336;48.692;9.144;2024-01-07T09:25:19;11.95;;;10.73;;
2652;SDS011;1336;48.692;9.144;2024-01-07T09:26:10;12.77;;;11.43;;
2652;SDS011;1336;48.692;9.144;2024-01-07T09:27:02;11.60;;;10.32;;
2652;SDS011;1336;48.692;9.144;2024-01-07T09:27:53;12.38;;;11.07;;
2652;SDS011;1336;48.692;9.144;2024-01-07T09:28:44;12.35;;;10.45;;
2652;SDS011;1336;48.692;9.144;2024-01-07T09:29:36;11.95;;;10.77;;
2652;SDS011;1336;48.692;9.144;2024-01-07T09:30:27;12.18;;;10.98;;
2652;SDS011;1336;48.692;9.144;2024-01-07T09:31:19;11.60;;;10.40;;
2652;SDS011;1336;48.692;9.144;2024-01-07T09:32:11;14.05;;;10.43;;
2652;SDS011;1336;48.692;9.144;2024-01-07T09:33:02;11.50;;;10.18;;
2652;SDS011;1336;48.692;9.144;2024-01-07T09:33:54;11.77;;;10.30;;
2652;SDS011;1336;48.692;9.144;2024-01-07T09:34:45;11.15;;;10.05;;
2652;SDS011;1336;48.692;9.144;2024-01-07T09:35:36;11.48;;;9.25;;
2652;SDS011;1336;48.692;9.144;2024-01-07T09:36:28;9.68;;;8.75;;
2652;SDS011;1336;48.692;9.144;2024-01-07T09:37:19;11.57;;;10.13;;
2652;SDS011;1336;48.692;9.144;2024-01-07T09:38:12;10.20;;;9.25;;
2652;SDS011;1336;48.692;9.144;2024-01-07T09:39:04;9.13;;;8.23;;
2652;SDS011;1336;48.692;9.144;2024-01-07T09:39:56;9.65;;;8.70;;
2652;SDS011;1336;48.692;9.144;2024-01-07T09:40:47;9.75;;;8.23;;
2652;SDS011;1336;48.692;9.144;2024-01-07T09:41:39;9.25;;;8.40;;
2652;SDS011;1336;48.692;9.144;2024-01-07T09:42:31;9.30;;;8.40;;
2652;SDS011;1336;48.692;9.144;2024-01-07T09:43:22;10.10;;;8.65;;
2652;SDS011;1336;48.692;9.144;2024-01-07T09:44:14;9.10;;;8.20;;
2652;SDS011;1336;48.692;9.144;2024-01-07T09:45:05;11.40;;;8.23;;
2652;SDS011;1336;48.692;9.144;2024-01-07T09:45:56;8.90;;;8.10;;
2652;SDS011;1336;48.692;9.144;2024-01-07T09:46:49;8.02;;;7.32;;
2652;SDS011;1336;48.692;9.144;2024-01-07T09:47:42;7.85;;;7.00;;
2652;SDS011;1336;48.692;9.144;2024-01-07T09:48:35;8.35;;;7.55;;
2652;SDS011;1336;48.692;9.144;2024-01-07T09:49:27;7.97;;;7.13;;
2652;SDS011;1336;48.692;9.144;2024-01-07T09:50:18;9.77;;;7.88;;
2652;SDS011;1336;48.692;9.144;2024-01-07T09:51:10;8.25;;;7.45;;
2652;SDS011;1336;48.692;9.144;2024-01-07T09:52:03;8.02;;;7.22;;
2652;SDS011;1336;48.692;9.144;2024-01-07T09:52:55;8.57;;;7.78;;
2652;SDS011;1336;48.692;9.144;2024-01-07T09:53:49;10.20;;;7.63;;
2652;SDS011;1336;48.692;9.144;2024-01-07T09:54:43;7.80;;;7.00;;
2652;SDS011;1336;48.692;9.144;2024-01-07T09:55:40;8.10;;;7.40;;
2652;SDS011;1336;48.692;9.144;2024-01-07T09:56:36;9.60;;;7.70;;
2652;SDS011;1336;48.692;9.144;2024-01-07T09:57:27;8.38;;;7.57;;
2652;SDS011;1336;48.692;9.144;2024-01-07T09:58:18;8.25;;;7.45;;
2652;SDS011;1336;48.692;9.144;2024-01-07T09:59:10;8.70;;;7.82;;
2652;SDS011;1336;48.692;9.144;2024-01-07T10:00:01;8.48;;;7.68;;
2652;SDS011;1336;48.692;9.144;2024-01-07T10:00:54;8.98;;;7.60;;
2652;SDS011;1336;48.692;9.144;2024-01-07T10:01:46;8.85;;;7.95;;
2652;SDS011;1336;48.692;9.144;2024-01-07T10:02:37;7.65;;;6.95;;
2652;SDS011;1336;48.692;9.144;2024-01-07T10:03:31;8.88;;;7.97;;
2652;SDS011;1336;48.692;9.144;2024-01-07T10:04:23;7.93;;;7.13;;
2652;SDS011;1336;48.692;9.144;2024-01-07T10:05:14;9.23;;;8.07;;
2652;SDS011;1336;48.692;9.144;2024-01-07T10:06:07;8.70;;;7.80;;
2652;SDS011;1336;48.692;9.144;2024-01-07T10:06:58;8.02;;;7.30;;
2652;SDS011;1336;48.692;9.144;2024-01-07T10:07:49;9.32;;;7.85;;
2652;SDS011;1336;48.692;9.144;2024-01-07T10:08:44;9.25;;;7.68;;
2652;SDS011;1336;48.692;9.144;2024-01-07T10:09:36;7.75;;;6.95;;
2652;SDS011;1336;48.692;9.144;2024-01-07T10:10:28;8.10;;;7.30;;
2652;SDS011;1336;48.692;9.144;2024-01-07T10:11:20;8.82;;;7.90;;
2652;SDS011;1336;48.692;9.144;2024-01-07T10:12:12;8.20;;;7.50;;
2652;SDS011;1336;48.692;9.144;2024-01-07T10:13:04;8.35;;;7.55;;
2652;SDS011;1336;48.692;9.144;2024-01-07T10:13:55;9.10;;;8.20;;
2652;SDS011;1336;48.692;9.144;2024-01-07T10:14:46;9.10;;;8.20;;
2652;SDS011;1336;48.692;9.144;2024-01-07T10:15:38;10.73;;;7.13;;
2652;SDS011;1336;48.692;9.144;2024-01-07T10:16:30;7.82;;;7.03;;
2652;SDS011;1336;48.692;9.144;2024-01-07T10:17:22;8.52;;;7.65;;
2652;SDS011;1336;48.692;9.144;2024-01-07T10:18:18;10.02;;;7.65;;
2652;SDS011;1336;48.692;9.144;2024-01-07T10:19:09;8.90;;;7.38;;
2652;SDS011;1336;48.692;9.144;2024-01-07T10:20:00;8.60;;;7.80;;
2652;SDS011;1336;48.692;9.144;2024-01-07T10:20:53;8.75;;;7.85;;
2652;SDS011;1336;48.692;9.144;2024-01-07T10:21:45;9.15;;;7.82;;
2652;SDS011;1336;48.692;9.144;2024-01-07T10:22:36;7.78;;;7.03;;
2652;SDS011;1336;48.692;9.144;2024-01-07T10:23:28;7.20;;;6.50;;
2652;SDS011;1336;48.692;9.144;2024-01-07T10:24:19;7.82;;;7.03;;
2652;SDS011;1336;48.692;9.144;2024-01-07T10:25:12;7.70;;;7.00;;
2652;SDS011;1336;48.692;9.144;2024-01-07T10:26:06;8.45;;;7.65;;
2652;SDS011;1336;48.692;9.144;2024-01-07T10:26:57;8.00;;;7.30;;
2652;SDS011;1336;48.692;9.144;2024-01-07T10:27:48;8.23;;;7.53;;
2652;SDS011;1336;48.692;9.144;2024-01-07T10:28:40;7.70;;;6.85;;
2652;SDS011;1336;48.692;9.144;2024-01-07T10:29:33;8.07;;;7.28;;
2652;SDS011;1336;48.692;9.144;2024-01-07T10:30:24;8.60;;;7.75;;
2652;SDS011;1336;48.692;9.144;2024-01-07T10:31:16;49.47;;;44.03;;
2652;SDS011;1336;48.692;9.144;2024-01-07T10:32:08;14.68;;;13.15;;
2652;SDS011;1336;48.692;9.144;2024-01-07T10:32:59;12.52;;;11.23;;
2652;SDS011;1336;48.692;9.144;2024-01-07T10:33:51;17.27;;;15.52;;
2652;SDS011;1336;48.692;9.144;2024-01-07T10:34:42;13.88;;;12.30;;
2652;SDS011;1336;48.692;9.144;2024-01-07T10:35:37;11.90;;;10.20;;
2652;SDS011;1336;48.692;9.144;2024-01-07T10:36:29;11.20;;;10.07;;
2652;SDS011;1336;48.692;9.144;2024-01-07T10:37:21;14.25;;;12.85;;
2652;SDS011;1336;48.692;9.144;2024-01-07T10:38:13;9.98;;;8.98;;
2652;SDS011;1336;48.692;9.144;2024-01-07T10:39:05;9.30;;;8.40;;
2652;SDS011;1336;48.692;9.144;2024-01-07T10:39:57;16.23;;;14.38;;
2652;SDS011;1336;48.692;9.144;2024-01-07T10:40:52;10.60;;;9.57;;
2652;SDS011;1336;48.692;9.144;2024-01-07T10:41:46;10.07;;;9.10;;
2652;SDS011;1336;48.692;9.144;2024-01-07T10:42:38;9.18;;;8.27;;
2652;SDS011;1336;48.692;9.144;2024-01-07T10:43:31;11.50;;;10.40;;
2652;SDS011;1336;48.692;9.144;2024-01-07T10:44:25;8.20;;;7.50;;
2652;SDS011;1336;48.692;9.144;2024-01-07T10:45:17;9.43;;;8.52;;
2652;SDS011;1336;48.692;9.144;2024-01-07T10:46:09;9.25;;;8.18;;
2652;SDS011;1336;48.692;9.144;2024-01-07T10:47:00;9.93;;;8.40;;
2652;SDS011;1336;48.692;9.144;2024-01-07T10:47:55;9.40;;;8.50;;
2652;SDS011;1336;48.692;9.144;2024-01-07T10:48:53;10.30;;;9.30;;
2652;SDS011;1336;48.692;9.144;2024-01-07T10:49:46;9.77;;;8.77;;
2652;SDS011;1336;48.692;9.144;2024-01-07T10:50:41;8.27;;;7.57;;
2652;SDS011;1336;48.692;9.144;2024-01-07T10:51:34;8.50;;;7.70;;
2652;SDS011;1336;48.692;9.144;2024-01-07T10:52:26;8.98;;;8.13;;
2652;SDS011;1336;48.692;9.144;2024-01-07T10:53:20;8.45;;;7.65;;
2652;SDS011;1336;48.692;9.144;2024-01-07T10:54:13;8.23;;;7.40;;
2652;SDS011;1336;48.692;9.144;2024-01-07T10:55:08;8.40;;;7.60;;
2652;SDS011;1336;48.692;9.144;2024-01-07T10:56:03;7.68;;;6.95;;
2652;SDS011;1336;48.692;9.144;2024-01-07T10:56:57;8.38;;;7.57;;
2652;SDS011;1336;48.692;9.144;2024-01-07T10:57:49;9.25;;;8.32;;
2652;SDS011;1336;48.692;9.144;2024-01-07T10:58:41;8.23;;;7.53;;
2652;SDS011;1336;48.692;9.144;2024-01-07T10:59:32;8.68;;;7.88;;
2652;SDS011;1336;48.692;9.144;2024-01-07T11:00:24;9.50;;;7.30;;
2652;SDS011;1336;48.692;9.144;2024-01-07T11:01:16;8.40;;;7.60;;
2652;SDS011;1336;48.692;9.144;2024-01-07T11:02:08;8.70;;;7.80;;
2652;SDS011;1336;48.692;9.144;2024-01-07T11:03:02;9.20;;;8.25;;
2652;SDS011;1336;48.692;9.144;2024-01-07T11:03:57;8.90;;;8.00;;
2652;SDS011;1336;48.692;9.144;2024-01-07T11:04:51;8.95;;;8.07;;
2652;SDS011;1336;48.692;9.144;2024-01-07T11:05:43;9.13;;;8.30;;
2652;SDS011;1336;48.692;9.144;2024-01-07T11:06:39;9.45;;;8.55;;
2652;SDS011;1336;48.692;9.144;2024-01-07T11:07:34;9.45;;;8.45;;
2652;SDS011;1336;48.692;9.144;2024-01-07T11:08:28;10.00;;;9.10;;
2652;SDS011;1336;48.692;9.144;2024-01-07T11:09:23;10.18;;;9.18;;
2652;SDS011;1336;48.692;9.144;2024-01-07T11:10:19;9.65;;;8.70;;
2652;SDS011;1336;48.692;9.144;2024-01-07T11:11:14;10.15;;;9.20;;
2652;SDS011;1336;48.692;9.144;2024-01-07T11:12:10;9.73;;;8.80;;
2652;SDS011;1336;48.692;9.144;2024-01-07T11:13:02;9.10;;;8.20;;
2652;SDS011;1336;48.692;9.144;2024-01-07T11:13:53;10.43;;;9.32;;
2652;SDS011;1336;48.692;9.144;2024-01-07T11:14:45;8.90;;;8.02;;
2652;SDS011;1336;48.692;9.144;2024-01-07T11:15:51;9.20;;;8.38;;
2652;SDS011;1336;48.692;9.144;2024-01-07T11:16:43;10.52;;;9.50;;